Time;durP1;ratioP1;P1;durP2;ratioP2;P2;SDS_P1;SDS_P2;PMS_P1;PMS_P2;Temp;Humidity;BMP_temperature;BMP_pressure;BME280_temperature;BME280_humidity;BME280_pressure;Samples;Min_cycle;Max_cycle;Signal;HPM_P1;HPM_P2
2023/06/21 00:00:00;;;;;;;16.67;8.13;;;;;;;24.12;49.02;99140.37;4357848;32;33443;-87
2023/06/21 00:02:31;;;;;;;9.30;7.32;;;;;;;24.21;48.58;99134.69;4351555;32;34182;-85
2023/06/21 00:04:59;;;;;;;10.68;6.80;;;;;;;24.21;48.52;99132.03;4343807;32;33979;-87
2023/06/21 00:07:27;;;;;;;10.27;6.80;;;;;;;24.18;48.51;99132.16;4358729;32;33521;-88
2023/06/21 00:09:54;;;;;;;12.00;7.40;;;;;;;24.21;48.67;99121.44;4357288;32;35057;-84
2023/06/21 00:12:25;;;;;;;9.30;6.43;;;;;;;23.98;49.05;99119.78;4357079;32;33987;-83
2023/06/21 00:14:53;;;;;;;11.12;6.95;;;;;;;23.70;49.95;99121.88;4358089;32;34356;-86
2023/06/21 00:17:20;;;;;;;11.27;6.93;;;;;;;23.88;49.60;99120.25;4359587;32;33793;-84
2023/06/21 00:19:48;;;;;;;10.32;6.90;;;;;;;23.89;49.47;99124.59;4357011;32;34469;-83
2023/06/21 00:22:21;;;;;;;12.63;7.37;;;;;;;23.87;49.62;99118.53;4357344;32;34032;-83
2023/06/21 00:24:50;;;;;;;11.15;7.03;;;;;;;23.86;49.90;99116.78;4356914;32;34385;-84
2023/06/21 00:27:18;;;;;;;12.37;6.95;;;;;;;23.91;49.29;99117.47;4358505;32;33786;-83
2023/06/21 00:29:45;;;;;;;8.70;6.28;;;;;;;23.79;49.68;99117.06;4359403;32;33797;-83
2023/06/21 00:32:13;;;;;;;11.07;6.60;;;;;;;23.79;49.03;99117.06;4344864;32;33729;-82
2023/06/21 00:34:42;;;;;;;10.73;6.97;;;;;;;23.94;49.15;99117.31;4332997;32;33880;-85
2023/06/21 00:37:11;;;;;;;12.05;6.70;;;;;;;23.95;48.88;99111.13;4351315;32;34582;-83
2023/06/21 00:39:39;;;;;;;8.10;6.05;;;;;;;24.06;48.32;99123.91;4357554;32;34942;-84
2023/06/21 00:42:07;;;;;;;11.15;6.47;;;;;;;23.75;49.11;99120.75;4356737;32;34775;-83
2023/06/21 00:44:35;;;;;;;8.55;6.12;;;;;;;23.89;48.66;99119.31;4359313;32;34141;-86
2023/06/21 00:47:04;;;;;;;8.75;6.22;;;;;;;24.00;48.53;99125.00;4356232;32;33583;-82
2023/06/21 00:49:31;;;;;;;10.88;6.80;;;;;;;23.93;49.03;99123.53;4331304;32;32942;-82
2023/06/21 00:51:59;;;;;;;12.07;6.40;;;;;;;24.03;48.74;99136.34;4344417;32;33974;-83
2023/06/21 00:54:30;;;;;;;8.73;6.47;;;;;;;23.88;49.10;99125.53;4358063;32;34053;-84
2023/06/21 00:56:57;;;;;;;9.15;6.53;;;;;;;23.90;49.10;99121.88;4343895;32;33607;-89
2023/06/21 00:59:28;;;;;;;8.32;6.20;;;;;;;23.90;48.88;99131.63;4358347;32;34254;-82
2023/06/21 01:01:57;;;;;;;9.23;6.32;;;;;;;23.88;49.04;99139.63;4360093;32;35514;-83
2023/06/21 01:04:26;;;;;;;10.93;6.37;;;;;;;23.91;49.03;99128.06;4357546;32;33993;-83
2023/06/21 01:07:21;;;;;;;9.35;6.93;;;;;;;23.90;48.95;99126.31;4359568;32;33519;-83
2023/06/21 01:10:17;;;;;;;12.15;6.97;;;;;;;24.03;48.84;99131.03;4344520;32;33928;-90
2023/06/21 01:13:09;;;;;;;10.35;7.00;;;;;;;24.01;48.99;99117.00;4345952;32;34612;-83
2023/06/21 01:15:46;;;;;;;9.77;6.68;;;;;;;23.95;49.12;99125.22;4345161;32;33892;-83
2023/06/21 01:18:14;;;;;;;10.88;7.05;;;;;;;23.82;49.27;99131.06;4360204;32;33789;-84
2023/06/21 01:20:44;;;;;;;11.85;7.30;;;;;;;23.77;49.39;99124.19;4346212;32;33834;-83
2023/06/21 01:23:17;;;;;;;10.48;7.05;;;;;;;23.80;49.13;99133.81;4345553;32;32681;-84
2023/06/21 01:25:56;;;;;;;11.82;7.55;;;;;;;23.67;49.78;99122.00;4345775;32;34110;-84
2023/06/21 01:28:38;;;;;;;13.02;6.37;;;;;;;23.70;49.83;99128.00;4346592;32;33807;-84
2023/06/21 01:31:06;;;;;;;12.07;7.43;;;;;;;23.87;49.14;99129.12;4357741;32;33876;-86
2023/06/21 01:33:34;;;;;;;10.70;6.75;;;;;;;23.88;48.85;99122.88;4345861;32;33422;-87
2023/06/21 01:36:04;;;;;;;12.45;6.60;;;;;;;23.81;49.03;99119.63;4345593;32;33582;-83
2023/06/21 01:38:32;;;;;;;10.55;7.25;;;;;;;23.83;49.33;99122.19;4335353;32;34114;-83
2023/06/21 01:41:02;;;;;;;10.90;7.00;;;;;;;23.84;49.12;99113.34;4358453;32;33512;-83
2023/06/21 01:43:30;;;;;;;9.65;6.53;;;;;;;23.82;49.34;99109.91;4359971;32;34272;-82
2023/06/21 01:46:00;;;;;;;12.82;7.28;;;;;;;23.76;49.37;99117.19;4349661;32;34071;-83
2023/06/21 01:48:29;;;;;;;11.07;6.80;;;;;;;23.71;49.74;99119.13;4345911;32;33810;-82
2023/06/21 01:50:58;;;;;;;10.00;6.95;;;;;;;23.66;49.96;99121.12;4359813;32;35087;-83
2023/06/21 01:53:33;;;;;;;14.10;7.80;;;;;;;23.62;50.12;99119.50;4359684;32;33788;-82
2023/06/21 01:56:03;;;;;;;12.07;8.45;;;;;;;23.62;49.94;99123.94;4347274;32;34987;-82
2023/06/21 01:58:32;;;;;;;13.38;7.55;;;;;;;23.56;49.92;99130.31;4360776;32;34415;-82
2023/06/21 02:01:02;;;;;;;11.68;7.07;;;;;;;23.58;49.74;99133.78;4347370;32;34029;-82
2023/06/21 02:03:31;;;;;;;9.68;7.12;;;;;;;23.51;50.00;99132.31;4346493;32;34098;-87
2023/06/21 02:06:03;;;;;;;11.15;7.25;;;;;;;23.42;50.30;99133.56;4350766;32;34365;-91
2023/06/21 02:08:32;;;;;;;11.63;7.55;;;;;;;23.43;50.35;99134.41;4360784;32;34406;-82
2023/06/21 02:11:03;;;;;;;10.45;7.60;;;;;;;23.51;49.99;99137.59;4350764;32;33686;-83
2023/06/21 02:13:31;;;;;;;11.68;7.20;;;;;;;23.48;50.24;99140.37;4360066;32;33806;-83
2023/06/21 02:15:58;;;;;;;11.07;7.60;;;;;;;23.39;50.47;99144.25;4357719;32;33554;-82
2023/06/21 02:18:26;;;;;;;12.98;7.87;;;;;;;23.42;50.57;99140.63;4357724;32;33819;-87
2023/06/21 02:20:54;;;;;;;10.43;7.80;;;;;;;23.36;50.61;99143.50;4358535;32;34445;-82
2023/06/21 02:23:21;;;;;;;12.25;7.62;;;;;;;23.40;50.67;99145.09;4357968;32;33922;-86
2023/06/21 02:25:48;;;;;;;14.48;8.07;;;;;;;23.40;50.67;99140.69;4358261;32;32627;-83
2023/06/21 02:28:20;;;;;;;10.38;8.00;;;;;;;23.36;50.81;99143.50;4359482;32;34516;-82
2023/06/21 02:30:47;;;;;;;12.68;8.38;;;;;;;23.43;50.53;99145.00;4346570;32;33940;-83
2023/06/21 02:33:15;;;;;;;9.82;7.82;;;;;;;23.47;50.48;99141.31;4356854;32;34646;-82
2023/06/21 02:35:43;;;;;;;11.27;8.73;;;;;;;23.29;50.98;99141.09;4357620;32;34250;-83
2023/06/21 02:38:10;;;;;;;12.88;8.05;;;;;;;23.33;51.12;99135.69;4340213;32;33817;-86
2023/06/21 02:40:38;;;;;;;10.68;8.32;;;;;;;;;;4358866;32;33821;-83
2023/06/21 02:43:05;;;;;;;11.60;8.30;;;;;;;23.21;51.57;99144.97;4355958;32;35428;-83
2023/06/21 02:45:33;;;;;;;11.98;8.40;;;;;;;23.21;51.49;99132.59;4359273;32;34719;-83
2023/06/21 02:48:00;;;;;;;10.77;8.75;;;;;;;23.41;50.95;99130.94;4359338;32;33059;-83
2023/06/21 02:50:28;;;;;;;10.98;8.32;;;;;;;23.36;51.15;99127.62;4352168;32;34549;-83
2023/06/21 02:52:56;;;;;;;10.48;7.75;;;;;;;23.28;51.36;99128.81;4357582;32;34048;-85
2023/06/21 02:55:23;;;;;;;10.57;7.97;;;;;;;23.30;51.15;99131.41;4358166;32;34091;-85
2023/06/21 02:57:51;;;;;;;11.10;7.97;;;;;;;23.12;51.68;99135.62;4359498;32;33825;-82
2023/06/21 03:00:22;;;;;;;13.23;7.55;;;;;;;23.22;51.49;99139.66;4357495;32;33080;-80
2023/06/21 03:02:50;;;;;;;13.05;8.10;;;;;;;23.20;51.72;99145.91;4360178;32;34911;-80
2023/06/21 03:05:18;;;;;;;10.35;8.10;;;;;;;23.29;51.46;99134.94;4346611;32;32882;-82
2023/06/21 03:07:46;;;;;;;11.88;8.80;;;;;;;23.25;51.74;99126.28;4358869;32;34462;-82
2023/06/21 03:10:14;;;;;;;10.30;8.25;;;;;;;23.40;51.53;99123.94;4344234;32;33319;-83
2023/06/21 03:12:43;;;;;;;13.18;8.40;;;;;;;23.29;52.23;99124.37;4346792;32;33743;-88
2023/06/21 03:15:12;;;;;;;13.88;8.40;;;;;;;23.36;51.90;99131.13;4359577;32;34392;-82
2023/06/21 03:17:40;;;;;;;14.95;8.95;;;;;;;23.25;52.39;99130.69;4345332;32;33705;-83
2023/06/21 03:20:15;;;;;;;10.52;8.38;;;;;;;23.03;53.07;99144.78;4356309;32;34342;-92
2023/06/21 03:22:44;;;;;;;11.10;8.32;;;;;;;23.26;52.79;99132.41;4357749;32;34894;-81
2023/06/21 03:25:14;;;;;;;11.90;9.10;;;;;;;23.26;52.72;99135.94;4360354;32;34278;-83
2023/06/21 03:27:41;;;;;;;13.32;9.20;;;;;;;23.21;53.51;99145.84;4345929;32;33406;-82
2023/06/21 03:30:11;;;;;;;11.50;8.15;;;;;;;23.22;53.68;99146.69;4346291;32;33908;-83
2023/06/21 03:32:46;;;;;;;12.45;8.90;;;;;;;23.31;53.33;99138.41;4347112;32;34116;-83
2023/06/21 03:35:18;;;;;;;;;;;;;;;23.37;53.46;99132.84;4348224;32;33727;-82
2023/06/21 03:37:46;;;;;;;11.95;8.98;;;;;;;23.64;53.19;99128.25;4330514;32;34379;-88
2023/06/21 03:40:14;;;;;;;11.70;8.38;;;;;;;23.39;53.64;99130.16;4358977;32;34533;-83
2023/06/21 03:42:43;;;;;;;11.23;8.52;;;;;;;23.41;53.82;99137.13;4346840;32;33928;-83
2023/06/21 03:45:12;;;;;;;12.45;8.70;;;;;;;23.59;53.86;99129.34;4347025;32;34046;-83
2023/06/21 03:47:43;;;;;;;11.73;8.75;;;;;;;23.63;54.05;99131.81;4359413;32;33948;-83
2023/06/21 03:50:12;;;;;;;11.02;8.15;;;;;;;23.60;54.15;99125.78;4357767;32;33717;-81
2023/06/21 03:52:40;;;;;;;11.30;8.95;;;;;;;23.69;54.14;99131.59;4345932;32;34136;-82
2023/06/21 03:55:08;;;;;;;15.10;9.20;;;;;;;23.60;54.03;99131.97;4360076;32;33524;-81
2023/06/21 03:57:36;;;;;;;12.43;9.15;;;;;;;23.69;54.23;99125.44;4357954;32;33876;-83
2023/06/21 04:00:09;;;;;;;12.35;8.40;;;;;;;23.83;53.89;99130.16;4357048;32;33415;-82
2023/06/21 04:02:42;;;;;;;14.13;8.40;;;;;;;24.12;53.16;99137.72;4374513;32;34234;-82
2023/06/21 04:05:10;;;;;;;11.25;8.68;;;;;;;23.88;53.02;99126.41;4348636;32;33620;-82
2023/06/21 04:07:38;;;;;;;12.18;9.35;;;;;;;24.12;52.27;99137.72;4367793;32;32880;-82
2023/06/21 04:10:06;;;;;;;12.00;8.23;;;;;;;24.36;51.58;99133.16;4358561;32;33967;-85
2023/06/21 04:12:34;;;;;;;13.07;8.38;;;;;;;24.47;52.06;99130.03;4346160;32;34766;-91
2023/06/21 04:15:03;;;;;;;11.60;7.82;;;;;;;24.41;51.60;99136.50;4359857;32;35077;-83
2023/06/21 04:17:43;;;;;;;13.05;8.77;;;;;;;24.68;50.85;99145.00;4358560;32;34149;-87
2023/06/21 04:20:13;;;;;;;14.10;9.13;;;;;;;24.84;50.99;99144.28;4359487;32;34122;-89
2023/06/21 04:22:42;;;;;;;10.80;7.93;;;;;;;25.15;50.39;99151.72;4358386;32;35086;-82
2023/06/21 04:25:10;;;;;;;11.98;9.18;;;;;;;25.43;48.97;99159.25;4358965;32;34239;-90
2023/06/21 04:27:40;;;;;;;11.45;8.25;;;;;;;25.91;48.25;99166.62;4357601;32;33792;-84
2023/06/21 04:30:11;;;;;;;13.35;8.30;;;;;;;25.86;48.45;99173.09;4360247;32;34044;-85
2023/06/21 04:32:44;;;;;;;10.00;7.57;;;;;;;26.36;47.94;99177.63;4366046;32;34273;-83
2023/06/21 04:35:16;;;;;;;15.30;7.75;;;;;;;26.63;47.65;99178.00;4370849;32;34629;-82
2023/06/21 04:37:45;;;;;;;11.88;8.13;;;;;;;26.80;47.16;99187.78;4350932;32;33435;-81
2023/06/21 04:40:21;;;;;;;10.95;7.32;;;;;;;27.09;46.69;99191.53;4347700;32;33478;-91
2023/06/21 04:42:54;;;;;;;11.23;8.05;;;;;;;27.19;46.79;99187.44;4444395;27;35115;-80
2023/06/21 04:45:22;;;;;;;13.95;7.90;;;;;;;27.58;46.36;99194.16;4356852;32;32319;-88
2023/06/21 04:47:52;;;;;;;10.43;7.30;;;;;;;27.75;45.97;99183.41;4360248;32;34420;-82
2023/06/21 04:50:21;;;;;;;12.90;8.50;;;;;;;27.76;46.38;99192.28;4361279;32;35328;-82
2023/06/21 04:52:50;;;;;;;13.15;8.55;;;;;;;27.67;45.99;99187.44;4360093;32;33946;-82
2023/06/21 04:55:52;;;;;;;13.07;9.13;;;;;;;27.66;46.07;99189.25;4346643;32;34253;-80
2023/06/21 04:58:20;;;;;;;14.87;8.88;;;;;;;27.07;47.37;99190.75;4348505;32;33645;-85
2023/06/21 05:00:47;;;;;;;13.10;8.45;;;;;;;27.11;47.15;99187.00;4332859;32;34055;-85
2023/06/21 05:03:15;;;;;;;13.05;8.80;;;;;;;26.83;46.42;99187.63;4358914;32;34184;-90
2023/06/21 05:05:42;;;;;;;12.88;7.95;;;;;;;26.37;47.00;99180.22;4359870;32;35036;-87
2023/06/21 05:08:11;;;;;;;12.02;8.35;;;;;;;26.61;48.39;99183.44;4367422;32;33771;-81
2023/06/21 05:10:39;;;;;;;13.02;8.93;;;;;;;27.27;45.34;99177.22;4364956;32;34208;-81
2023/06/21 05:13:06;;;;;;;10.52;8.40;;;;;;;27.42;43.80;99175.50;4361301;32;33658;-89
2023/06/21 05:15:34;;;;;;;14.75;8.75;;;;;;;27.00;45.60;99173.38;4361141;32;34994;-90
2023/06/21 05:18:01;;;;;;;10.88;8.05;;;;;;;26.99;44.86;99161.91;4360080;32;33458;-81
2023/06/21 05:20:29;;;;;;;13.95;7.93;;;;;;;27.14;45.27;99169.06;4347913;32;34727;-82
2023/06/21 05:22:57;;;;;;;12.35;8.15;;;;;;;26.84;44.73;99176.03;4361366;32;33991;-83
2023/06/21 05:25:24;;;;;;;11.63;8.73;;;;;;;27.25;44.39;99176.47;4361121;32;34122;-87
2023/06/21 05:27:52;;;;;;;15.57;8.75;;;;;;;27.57;43.41;99179.13;4346666;32;33595;-82
2023/06/21 05:30:19;;;;;;;12.90;8.43;;;;;;;27.67;43.60;99182.12;4359195;32;34284;-82
2023/06/21 05:32:47;;;;;;;13.23;8.25;;;;;;;27.75;43.87;99190.56;4361093;32;34142;-87
2023/06/21 05:35:15;;;;;;;12.98;8.75;;;;;;;27.99;44.57;99188.28;4347568;32;34216;-82
2023/06/21 05:37:42;;;;;;;21.85;9.30;;;;;;;27.81;43.29;99184.91;4361036;32;34765;-80
2023/06/21 05:40:11;;;;;;;12.98;8.25;;;;;;;27.35;44.88;99191.00;4359202;32;34825;-84
2023/06/21 05:42:39;;;;;;;12.90;9.05;;;;;;;27.31;45.12;99184.09;4361132;32;34966;-89
2023/06/21 05:45:08;;;;;;;12.00;8.57;;;;;;;27.63;44.79;99179.63;4347093;32;35709;-82
2023/06/21 05:47:36;;;;;;;12.13;8.90;;;;;;;27.96;44.85;99183.13;4361219;32;32882;-82
2023/06/21 05:50:04;;;;;;;10.95;8.45;;;;;;;27.85;44.31;99183.75;4358972;32;34003;-83
2023/06/21 05:52:32;;;;;;;11.12;8.55;;;;;;;27.98;44.47;99189.22;4360759;32;34630;-83
2023/06/21 05:54:59;;;;;;;11.10;8.30;;;;;;;27.58;43.57;99187.03;4347314;32;33394;-91
2023/06/21 05:57:27;;;;;;;12.27;8.23;;;;;;;27.68;43.74;99191.81;4347564;32;34371;-82
2023/06/21 05:59:56;;;;;;;10.38;7.75;;;;;;;27.65;42.89;99190.19;4359898;32;34696;-92
2023/06/21 06:02:23;;;;;;;12.20;8.02;;;;;;;27.48;44.03;99204.47;4361048;32;35044;-82
2023/06/21 06:04:53;;;;;;;10.05;7.65;;;;;;;27.46;44.17;99203.69;4359539;32;35495;-84
2023/06/21 06:07:23;;;;;;;10.80;7.75;;;;;;;27.77;44.45;99194.88;4360802;32;34478;-90
2023/06/21 06:09:51;;;;;;;11.95;7.78;;;;;;;27.59;44.37;99204.72;4359288;32;34109;-83
2023/06/21 06:12:21;;;;;;;19.77;8.88;;;;;;;28.13;43.27;99188.31;4360786;32;34660;-83
2023/06/21 06:14:50;;;;;;;11.55;8.20;;;;;;;27.99;43.29;99193.59;4360944;32;34336;-86
2023/06/21 06:17:17;;;;;;;16.60;9.00;;;;;;;28.19;43.25;99187.13;4347550;32;34505;-83
2023/06/21 06:19:45;;;;;;;12.90;8.25;;;;;;;28.54;42.97;99185.87;4359999;32;33624;-90
2023/06/21 06:22:12;;;;;;;11.12;8.02;;;;;;;28.41;42.31;99184.03;4360729;32;35273;-84
2023/06/21 06:24:40;;;;;;;12.77;7.93;;;;;;;28.34;42.94;99181.72;4347548;32;34857;-84
2023/06/21 06:27:09;;;;;;;13.30;9.45;;;;;;;28.56;42.92;99180.44;4360687;32;33436;-82
2023/06/21 06:29:36;;;;;;;11.05;8.52;;;;;;;28.27;42.96;99179.53;4359623;32;34382;-83
2023/06/21 06:32:04;;;;;;;13.55;8.98;;;;;;;28.56;42.45;99189.34;4359768;32;35023;-82
2023/06/21 06:34:32;;;;;;;13.02;8.32;;;;;;;28.32;43.17;99180.09;4347267;32;34034;-82
2023/06/21 06:36:59;;;;;;;12.80;8.77;;;;;;;28.54;43.58;99177.87;4344385;32;34563;-82
2023/06/21 06:39:40;;;;;;;13.38;8.95;;;;;;;29.00;42.31;99184.87;4345258;32;33787;-83
2023/06/21 06:42:10;;;;;;;12.77;8.13;;;;;;;28.96;42.89;99186.00;4342131;32;34335;-81
2023/06/21 06:44:38;;;;;;;15.88;8.52;;;;;;;29.67;43.03;99182.41;4358269;32;33900;-82
2023/06/21 06:47:07;;;;;;;12.63;8.57;;;;;;;29.44;41.70;99184.72;4346533;32;32929;-82
2023/06/21 06:49:34;;;;;;;13.25;8.18;;;;;;;28.97;42.40;99191.22;4360307;32;33912;-84
2023/06/21 06:52:02;;;;;;;14.43;8.60;;;;;;;28.98;42.13;99186.78;4346642;32;34068;-81
2023/06/21 06:54:30;;;;;;;12.13;7.87;;;;;;;29.01;43.32;99197.28;4346790;32;34675;-82
2023/06/21 06:56:57;;;;;;;15.88;8.85;;;;;;;28.98;43.27;99192.13;4359134;32;34430;-86
2023/06/21 06:59:25;;;;;;;12.32;8.52;;;;;;;29.11;42.08;99189.56;4360456;32;34090;-87
2023/06/21 07:01:56;;;;;;;11.90;7.95;;;;;;;28.84;42.15;99196.47;4351462;32;33876;-88
2023/06/21 07:04:25;;;;;;;13.07;8.25;;;;;;;29.25;43.41;99194.88;4358151;32;33630;-89
2023/06/21 07:06:53;;;;;;;11.73;7.50;;;;;;;29.20;41.92;99202.31;4368252;32;33580;-89
2023/06/21 07:09:21;;;;;;;12.50;8.15;;;;;;;29.63;41.49;99195.13;4359163;32;34071;-89
2023/06/21 07:11:48;;;;;;;16.90;8.77;;;;;;;29.39;41.35;99202.00;4360278;32;34011;-91
2023/06/21 07:14:16;;;;;;;12.20;8.38;;;;;;;28.82;42.12;99195.72;4360185;32;34260;-82
2023/06/21 07:16:48;;;;;;;17.75;9.05;;;;;;;28.76;43.38;99201.44;4359322;32;33368;-90
2023/06/21 07:19:16;;;;;;;14.70;8.70;;;;;;;29.03;42.97;99201.56;4357480;32;36364;-83
2023/06/21 07:21:44;;;;;;;12.80;8.35;;;;;;;29.19;42.19;99200.59;4359022;32;34960;-82
2023/06/21 07:24:12;;;;;;;13.52;8.50;;;;;;;29.79;41.79;99197.62;4360365;32;33944;-81
2023/06/21 07:26:39;;;;;;;12.77;8.18;;;;;;;29.70;42.09;99199.09;4360267;32;34616;-91
2023/06/21 07:29:07;;;;;;;13.40;9.10;;;;;;;30.26;40.85;99183.78;4359273;32;34658;-87
2023/06/21 07:31:35;;;;;;;14.77;8.65;;;;;;;30.64;40.37;99184.78;4343398;32;33450;-92
2023/06/21 07:34:02;;;;;;;13.62;9.15;;;;;;;30.73;39.20;99189.50;4358277;32;35068;-84
2023/06/21 07:36:35;;;;;;;13.40;9.70;;;;;;;30.32;39.86;99179.84;4359083;32;33269;-93
2023/06/21 07:39:05;;;;;;;14.43;8.88;;;;;;;30.29;41.16;99180.91;4360180;32;33950;-89
2023/06/21 07:41:32;;;;;;;13.73;8.85;;;;;;;30.79;40.20;99186.41;4346905;32;34259;-91
2023/06/21 07:44:00;;;;;;;13.23;9.18;;;;;;;30.95;39.59;99176.34;4346330;32;33111;-84
2023/06/21 07:46:28;;;;;;;13.32;9.15;;;;;;;30.24;41.10;99168.81;4360204;32;33322;-86
2023/06/21 07:48:55;;;;;;;13.98;9.68;;;;;;;30.27;40.04;99180.16;4357448;32;34022;-91
2023/06/21 07:51:23;;;;;;;15.18;10.15;;;;;;;30.13;41.38;99172.19;4346010;32;33237;-89
2023/06/21 07:53:50;;;;;;;14.85;10.07;;;;;;;30.35;40.83;99171.63;4359559;32;34928;-81
2023/06/21 07:56:18;;;;;;;14.90;9.95;;;;;;;30.46;41.96;99162.84;4359925;32;33929;-81
2023/06/21 07:58:47;;;;;;;13.55;10.43;;;;;;;30.31;41.33;99162.09;4359251;32;33791;-90
2023/06/21 08:01:14;;;;;;;14.65;9.02;;;;;;;30.56;41.16;99171.06;4359515;32;35055;-89
2023/06/21 08:03:42;;;;;;;16.70;10.45;;;;;;;30.99;41.58;99185.87;4346381;32;34258;-88
2023/06/21 08:06:11;;;;;;;15.95;9.30;;;;;;;31.15;40.86;99190.97;4361304;32;33710;-90
2023/06/21 08:08:39;;;;;;;15.77;9.70;;;;;;;31.23;41.22;99193.13;4375380;32;33852;-81
2023/06/21 08:11:07;;;;;;;14.18;10.40;;;;;;;31.19;39.48;99191.63;4371840;32;34131;-87
2023/06/21 08:13:34;;;;;;;13.05;10.13;;;;;;;30.71;40.05;99200.28;4339295;32;35037;-89
2023/06/21 08:16:02;;;;;;;16.02;9.90;;;;;;;31.23;40.61;99206.50;4365720;32;33656;-79
2023/06/21 08:18:29;;;;;;;15.02;10.18;;;;;;;31.39;39.51;99200.91;4347696;32;33904;-81
2023/06/21 08:20:57;;;;;;;14.57;10.20;;;;;;;30.54;40.79;99208.66;4361521;32;33724;-80
2023/06/21 08:23:24;;;;;;;16.85;9.52;;;;;;;30.64;40.49;99211.53;4361387;32;33995;-80
2023/06/21 08:25:52;;;;;;;15.70;10.23;;;;;;;30.89;39.80;99216.06;4361484;32;33756;-80
2023/06/21 08:28:19;;;;;;;12.85;9.70;;;;;;;31.00;40.32;99213.50;4347450;32;34768;-85
2023/06/21 08:30:47;;;;;;;13.50;9.05;;;;;;;31.11;40.97;99218.09;4360716;32;34110;-80
2023/06/21 08:33:15;;;;;;;14.73;9.68;;;;;;;31.36;40.53;99217.22;4360879;32;34238;-80
2023/06/21 08:35:42;;;;;;;16.75;9.75;;;;;;;31.17;40.53;99223.84;4361350;32;33672;-84
2023/06/21 08:38:10;;;;;;;18.08;10.07;;;;;;;31.30;40.45;99223.87;4347785;32;34176;-82
2023/06/21 08:40:58;;;;;;;16.67;9.90;;;;;;;31.35;40.80;99218.19;4359760;32;34291;-84
2023/06/21 08:43:27;;;;;;;12.93;9.07;;;;;;;31.39;41.74;99225.03;4345755;32;33806;-89
2023/06/21 08:45:55;;;;;;;14.13;9.77;;;;;;;31.50;41.49;99225.97;4361727;32;33859;-85
2023/06/21 08:48:23;;;;;;;12.77;9.52;;;;;;;31.60;41.18;99236.03;4358417;32;34573;-83
2023/06/21 08:50:50;;;;;;;13.85;9.95;;;;;;;31.88;41.08;99245.59;4358296;32;34260;-83
2023/06/21 08:53:28;;;;;;;16.05;9.82;;;;;;;31.74;42.51;99242.06;4361130;32;33691;-83
2023/06/21 08:55:59;;;;;;;14.90;11.38;;;;;;;31.89;43.63;99248.16;4352534;32;34378;-83
2023/06/21 08:58:27;;;;;;;16.73;10.20;;;;;;;31.74;39.88;99246.56;4362397;32;32486;-87
2023/06/21 09:00:58;;;;;;;14.35;10.98;;;;;;;31.77;40.08;99243.69;4362564;32;34209;-89
2023/06/21 09:03:32;;;;;;;12.18;10.02;;;;;;;31.52;40.69;99241.06;4376253;32;34238;-81
2023/06/21 09:06:13;;;;;;;15.63;10.65;;;;;;;30.81;43.01;99243.38;4375158;32;33505;-86
2023/06/21 09:08:41;;;;;;;14.20;10.13;;;;;;;31.31;44.06;99246.16;4374771;32;34619;-86
2023/06/21 09:11:09;;;;;;;15.95;10.30;;;;;;;31.44;44.63;99247.88;4360935;32;34103;-82
2023/06/21 09:13:38;;;;;;;12.55;9.98;;;;;;;31.31;43.36;99247.00;4358879;32;34910;-88
2023/06/21 09:16:06;;;;;;;14.13;10.23;;;;;;;31.49;43.62;99252.88;4346658;32;34626;-83
2023/06/21 09:18:37;;;;;;;16.42;10.48;;;;;;;31.31;44.27;99255.06;4360264;32;34871;-87
2023/06/21 09:21:08;;;;;;;16.25;9.63;;;;;;;30.95;42.63;99245.97;4345232;32;34302;-82
2023/06/21 09:23:38;;;;;;;14.80;10.95;;;;;;;31.27;45.69;99251.69;4360534;32;35132;-84
2023/06/21 09:26:09;;;;;;;18.62;10.38;;;;;;;30.90;42.36;99241.88;4347514;32;33885;-82
2023/06/21 09:28:37;;;;;;;16.23;10.27;;;;;;;31.05;46.83;99247.97;4347503;32;33703;-82
2023/06/21 09:31:05;;;;;;;17.12;10.98;;;;;;;31.26;46.42;99254.50;4360963;32;34982;-82
2023/06/21 09:33:32;;;;;;;16.02;10.57;;;;;;;31.25;45.38;99255.44;4361265;32;33890;-83
2023/06/21 09:36:01;;;;;;;15.00;10.75;;;;;;;31.29;44.28;99254.25;4360809;32;33445;-87
2023/06/21 09:38:32;;;;;;;14.35;10.48;;;;;;;31.25;48.61;99263.47;4360245;32;33954;-82
2023/06/21 09:41:01;;;;;;;14.90;10.13;;;;;;;31.25;49.44;99261.69;4359641;32;33762;-82
2023/06/21 09:43:28;;;;;;;11.60;9.23;;;;;;;31.35;48.52;99259.22;4334124;32;32453;-85
2023/06/21 09:46:00;;;;;;;15.30;10.77;;;;;;;31.33;47.79;99255.81;4360635;32;33708;-82
2023/06/21 09:48:30;;;;;;;14.93;10.55;;;;;;;30.99;48.67;99265.34;4344862;32;34220;-90
2023/06/21 09:51:00;;;;;;;16.75;10.88;;;;;;;31.15;46.08;99265.97;4358824;32;35304;-86
2023/06/21 09:53:28;;;;;;;14.93;10.30;;;;;;;30.89;47.62;99270.47;4346288;32;34042;-83
2023/06/21 09:55:56;;;;;;;15.65;11.00;;;;;;;30.99;48.48;99279.59;4360659;32;33655;-86
2023/06/21 09:58:24;;;;;;;14.52;10.50;;;;;;;31.05;48.58;99278.28;4347039;32;34057;-86
2023/06/21 10:00:51;;;;;;;33.33;11.25;;;;;;;31.11;48.81;99277.00;4359113;32;33857;-83
2023/06/21 10:03:22;;;;;;;15.80;11.20;;;;;;;30.98;49.10;99269.81;4346542;32;35178;-82
2023/06/21 10:05:57;;;;;;;20.42;11.05;;;;;;;31.04;49.74;99275.72;4347089;32;34483;-88
2023/06/21 10:08:29;;;;;;;15.75;10.98;;;;;;;31.06;46.62;99273.78;4347238;32;35207;-82
2023/06/21 10:10:56;;;;;;;15.98;11.32;;;;;;;31.20;48.37;99268.31;4360099;32;34205;-84
2023/06/21 10:13:31;;;;;;;15.15;10.90;;;;;;;31.24;46.65;99267.13;4359642;32;34935;-86
2023/06/21 10:16:00;;;;;;;14.18;11.12;;;;;;;31.19;48.75;99264.78;4360150;32;33761;-82
2023/06/21 10:18:29;;;;;;;18.75;12.15;;;;;;;30.96;50.64;99270.91;4359844;32;35076;-89
2023/06/21 10:21:08;;;;;;;16.12;11.48;;;;;;;31.02;48.25;99271.31;4358768;32;35078;-85
2023/06/21 10:23:38;;;;;;;16.02;11.75;;;;;;;31.35;48.19;99274.44;4359543;32;34300;-87
2023/06/21 10:26:06;;;;;;;17.27;10.80;;;;;;;31.20;49.94;99271.00;4360173;32;34642;-80
2023/06/21 10:28:39;;;;;;;13.20;10.45;;;;;;;31.43;49.54;99267.56;4334443;32;33971;-80
2023/06/21 10:31:08;;;;;;;27.40;13.20;;;;;;;31.40;48.48;99269.59;4359726;32;34617;-84
2023/06/21 10:33:37;;;;;;;17.42;11.50;;;;;;;30.95;45.24;99272.72;4360600;32;34561;-90
2023/06/21 10:36:06;;;;;;;16.87;11.40;;;;;;;31.19;47.94;99269.28;4359756;32;34349;-80
2023/06/21 10:38:48;;;;;;;24.08;12.80;;;;;;;31.40;49.87;99272.28;4346701;32;33963;-81
2023/06/21 10:41:16;;;;;;;24.30;12.10;;;;;;;31.21;47.33;99286.09;4346513;32;34021;-85
2023/06/21 10:43:44;;;;;;;17.30;11.15;;;;;;;31.19;50.21;99285.37;4360077;32;34725;-82
2023/06/21 10:46:12;;;;;;;15.10;11.23;;;;;;;31.58;48.61;99279.00;4360346;32;34354;-82
2023/06/21 10:48:40;;;;;;;23.10;11.52;;;;;;;31.50;51.48;99282.22;4346267;32;34538;-91
2023/06/21 10:51:08;;;;;;;15.75;11.02;;;;;;;31.48;51.17;99280.62;4346680;32;34081;-86
2023/06/21 10:53:35;;;;;;;20.10;12.35;;;;;;;31.23;48.31;99282.34;4360627;32;34166;-90
2023/06/21 10:56:05;;;;;;;19.42;10.85;;;;;;;31.12;46.75;99284.94;4334666;32;34443;-89
2023/06/21 10:58:33;;;;;;;21.73;11.25;;;;;;;31.36;44.80;99279.69;4346475;32;34588;-91
2023/06/21 11:01:00;;;;;;;14.73;11.55;;;;;;;31.20;48.84;99284.37;4360298;32;35138;-89
2023/06/21 11:03:28;;;;;;;15.18;11.85;;;;;;;31.30;48.83;99281.94;4359667;32;34216;-86
2023/06/21 11:06:33;;;;;;;16.83;12.05;;;;;;;31.34;50.38;99284.31;4359946;32;33271;-88
2023/06/21 11:09:10;;;;;;;15.20;11.30;;;;;;;31.49;51.03;99277.84;4347740;32;33742;-82
2023/06/21 11:11:40;;;;;;;15.65;11.35;;;;;;;31.73;51.11;99277.03;4357907;32;35001;-85
2023/06/21 11:14:08;;;;;;;17.85;12.45;;;;;;;31.54;52.02;99273.97;4354056;32;34420;-80
2023/06/21 11:16:39;;;;;;;15.57;11.50;;;;;;;31.56;47.19;99272.03;4346209;32;34448;-80
2023/06/21 11:19:08;;;;;;;14.45;11.63;;;;;;;31.65;44.93;99276.75;4359726;32;34010;-80
2023/06/21 11:21:46;;;;;;;15.20;11.52;;;;;;;31.61;50.19;99269.91;4359429;32;34018;-86
2023/06/21 11:24:18;;;;;;;16.02;11.40;;;;;;;31.74;44.22;99265.34;4346318;32;34203;-81
2023/06/21 11:27:05;;;;;;;19.80;12.10;;;;;;;31.79;44.95;99267.72;4359449;32;34660;-81
2023/06/21 11:29:35;;;;;;;14.38;12.27;;;;;;;31.68;45.70;99265.81;4344779;32;34793;-82
2023/06/21 11:32:11;;;;;;;13.73;11.48;;;;;;;31.80;45.44;99266.72;4358842;32;34048;-81
2023/06/21 11:34:56;;;;;;;15.98;11.77;;;;;;;32.05;44.41;99269.34;4355172;32;34135;-81